Time;durP1;ratioP1;P1;durP2;ratioP2;P2;SDS_P1;SDS_P2;PMS_P1;PMS_P2;Temp;Humidity;BMP_temperature;BMP_pressure;BME280_temperature;BME280_humidity;BME280_pressure;Samples;Min_cycle;Max_cycle;Signal;HPM_P1;HPM_P2
2021/11/17 02:28:04;;;;;;;9.17;6.90;;;9.60;99.90;;;;;;5051626;28;20244;-61
2021/11/17 02:30:55;;;;;;;8.43;6.57;;;9.50;99.90;;;;;;5051876;28;20309;-62
2021/11/17 02:33:42;;;;;;;11.50;6.77;;;9.50;99.90;;;;;;5051621;28;20320;-61
2021/11/17 02:36:28;;;;;;;8.83;6.37;;;9.30;99.90;;;;;;5051774;28;20581;-61
2021/11/17 02:39:09;;;;;;;7.97;6.27;;;9.40;99.90;;;;;;5051474;28;20202;-62
2021/11/17 02:41:57;;;;;;;9.40;6.50;;;9.50;99.90;;;;;;5051551;28;20239;-62
2021/11/17 02:44:39;;;;;;;8.90;6.50;;;9.50;99.90;;;;;;5047873;28;20241;-62
2021/11/17 02:47:23;;;;;;;7.10;5.83;;;9.60;99.90;;;;;;5051439;28;20225;-62
2021/11/17 02:50:06;;;;;;;8.97;6.30;;;9.60;99.90;;;;;;5050507;28;20677;-62
2021/11/17 02:52:52;;;;;;;8.13;6.47;;;9.60;99.90;;;;;;5051328;28;20621;-61
2021/11/17 02:55:34;;;;;;;8.83;6.10;;;9.70;99.90;;;;;;5051502;28;20213;-62
2021/11/17 02:58:21;;;;;;;11.53;8.43;;;9.70;99.90;;;;;;5051317;28;20205;-61
2021/11/17 03:01:27;;;;;;;9.60;6.30;;;9.60;99.90;;;;;;5051362;28;20259;-61
2021/11/17 03:04:07;;;;;;;7.60;5.70;;;9.60;99.90;;;;;;4970038;28;20250;-61
2021/11/17 03:07:02;;;;;;;6.07;5.07;;;9.70;99.90;;;;;;5039161;28;20213;-61
2021/11/17 03:09:44;;;;;;;7.03;5.57;;;9.70;99.90;;;;;;5051234;28;20205;-62
2021/11/17 03:12:27;;;;;;;7.23;5.87;;;9.70;99.90;;;;;;5051334;28;20206;-62
2021/11/17 03:15:23;;;;;;;8.03;5.70;;;9.70;99.90;;;;;;5051194;28;20736;-62
2021/11/17 03:18:04;;;;;;;8.93;6.00;;;9.60;99.90;;;;;;5051188;28;20208;-62
2021/11/17 03:21:01;;;;;;;7.83;6.03;;;9.60;99.90;;;;;;5051051;28;20208;-62
2021/11/17 03:23:41;;;;;;;8.87;6.10;;;9.60;99.90;;;;;;5050836;28;20236;-62
2021/11/17 03:26:24;;;;;;;8.77;6.70;;;9.60;99.90;;;;;;5051100;28;20212;-62
2021/11/17 03:29:07;;;;;;;9.50;6.50;;;9.50;99.90;;;;;;5050950;28;20308;-62
2021/11/17 03:31:59;;;;;;;8.80;6.87;;;9.50;99.90;;;;;;5050874;28;20213;-62
2021/11/17 03:34:43;;;;;;;9.13;6.23;;;9.50;99.90;;;;;;5050771;28;20610;-62
2021/11/17 03:37:38;;;;;;;7.80;6.10;;;9.50;99.90;;;;;;5050902;28;20205;-62
2021/11/17 03:40:26;;;;;;;11.23;5.90;;;9.50;99.90;;;;;;5050700;28;20209;-63
2021/11/17 03:43:38;;;;;;;8.50;6.33;;;9.50;99.90;;;;;;5050697;28;20291;-62
2021/11/17 03:46:22;;;;;;;7.93;6.17;;;9.50;99.90;;;;;;4969599;28;20211;-62
2021/11/17 03:49:01;;;;;;;8.73;6.53;;;9.50;99.90;;;;;;5040530;28;20502;-62
2021/11/17 03:51:42;;;;;;;9.73;6.93;;;9.60;99.90;;;;;;5051270;28;20209;-62
2021/11/17 03:54:22;;;;;;;8.40;6.40;;;9.60;99.90;;;;;;5050862;28;20282;-62
2021/11/17 03:57:08;;;;;;;12.43;8.37;;;9.60;99.90;;;;;;5050635;28;20209;-62
2021/11/17 04:00:00;;;;;;;7.30;6.13;;;9.60;99.90;;;;;;5050769;28;20245;-62
2021/11/17 04:02:40;;;;;;;8.27;6.13;;;9.50;99.90;;;;;;5054514;28;20210;-62
2021/11/17 04:05:27;;;;;;;9.97;6.73;;;9.60;99.90;;;;;;5054427;28;20205;-62
2021/11/17 04:08:15;;;;;;;8.67;6.57;;;9.60;99.90;;;;;;5054076;28;20693;-62
2021/11/17 04:10:58;;;;;;;10.73;7.03;;;9.60;99.90;;;;;;5054450;28;20216;-62
2021/11/17 04:13:34;;;;;;;9.63;6.87;;;9.60;99.90;;;;;;5054712;28;20225;-62
2021/11/17 04:16:14;;;;;;;7.67;6.17;;;9.60;99.90;;;;;;5055248;28;20218;-61
2021/11/17 04:18:53;;;;;;;10.37;6.37;;;9.60;99.90;;;;;;5054083;28;20669;-62
2021/11/17 04:21:40;;;;;;;16.10;12.70;;;9.60;99.90;;;;;;5054205;28;20206;-61
2021/11/17 04:24:30;;;;;;;9.70;7.47;;;9.60;99.90;;;;;;5053764;28;20267;-63
2021/11/17 04:27:13;;;;;;;8.97;6.63;;;9.50;99.90;;;;;;5054073;28;20213;-61
2021/11/17 04:30:00;;;;;;;10.13;6.60;;;9.50;99.90;;;;;;5054084;28;20225;-62
2021/11/17 04:32:54;;;;;;;9.50;6.13;;;9.50;99.90;;;;;;5054090;28;20217;-62
2021/11/17 04:35:57;;;;;;;8.93;6.77;;;9.50;99.90;;;;;;5050601;28;20221;-62
2021/11/17 04:38:42;;;;;;;13.60;6.87;;;9.60;99.90;;;;;;4972791;28;20200;-62
2021/11/17 04:41:28;;;;;;;7.73;6.23;;;9.60;99.90;;;;;;5048776;28;20267;-62
2021/11/17 04:44:09;;;;;;;8.67;6.23;;;9.60;99.90;;;;;;5053794;28;20237;-62
2021/11/17 04:46:48;;;;;;;10.63;7.30;;;9.50;99.90;;;;;;5054051;28;20224;-62
2021/11/17 04:49:31;;;;;;;9.53;6.83;;;9.50;99.90;;;;;;5053739;28;20202;-63
2021/11/17 04:52:12;;;;;;;8.67;6.77;;;9.50;99.90;;;;;;5053707;28;20712;-63
2021/11/17 04:54:57;;;;;;;8.90;6.90;;;9.50;99.90;;;;;;5053972;28;20232;-63
2021/11/17 04:57:38;;;;;;;10.97;7.03;;;9.40;99.90;;;;;;5053956;28;20197;-63
2021/11/17 05:00:37;;;;;;;8.97;6.77;;;9.40;99.90;;;;;;5053550;28;20205;-63
2021/11/17 05:03:15;;;;;;;8.60;6.97;;;9.50;99.90;;;;;;5053560;28;20303;-63
2021/11/17 05:06:01;;;;;;;8.60;6.60;;;9.50;99.90;;;;;;5053216;28;20681;-63
2021/11/17 05:08:37;;;;;;;8.83;6.97;;;9.50;99.90;;;;;;5053206;28;20225;-63
2021/11/17 05:11:15;;;;;;;8.60;6.87;;;9.50;99.90;;;;;;5053454;28;20259;-63
2021/11/17 05:13:51;;;;;;;10.30;7.70;;;9.50;99.90;;;;;;5052198;28;20229;-63
2021/11/17 05:16:33;;;;;;;10.03;7.47;;;9.50;99.90;;;;;;5053016;28;20205;-63
2021/11/17 05:19:07;;;;;;;10.17;7.43;;;9.50;99.90;;;;;;5052958;28;20626;-63
2021/11/17 05:21:49;;;;;;;12.53;8.10;;;9.40;99.90;;;;;;5053053;28;20676;-63
2021/11/17 05:24:31;;;;;;;11.17;7.60;;;9.30;99.90;;;;;;5052884;28;20229;-63
2021/11/17 05:27:10;;;;;;;9.97;6.90;;;9.30;99.90;;;;;;5053046;28;20212;-62
2021/11/17 05:30:02;;;;;;;14.97;8.07;;;9.30;99.90;;;;;;5053577;28;20634;-63
2021/11/17 05:32:48;;;;;;;10.40;7.60;;;9.30;99.90;;;;;;5053623;28;20205;-63
2021/11/17 05:35:30;;;;;;;13.00;8.43;;;9.30;99.90;;;;;;5053776;28;20205;-63
2021/11/17 05:38:08;;;;;;;10.13;7.13;;;9.30;99.90;;;;;;5053491;28;20202;-63
2021/11/17 05:40:47;;;;;;;12.23;8.57;;;9.30;99.90;;;;;;5052763;28;20279;-63
2021/11/17 05:43:27;;;;;;;13.53;8.57;;;9.30;99.90;;;;;;5052524;28;20240;-63
2021/11/17 05:46:12;;;;;;;12.20;8.83;;;9.30;99.90;;;;;;5052765;28;20208;-63
2021/11/17 05:48:49;;;;;;;13.60;8.40;;;9.20;99.90;;;;;;5052470;28;20257;-64
2021/11/17 05:51:34;;;;;;;15.03;8.90;;;9.30;99.90;;;;;;5052482;28;20701;-61
2021/11/17 05:54:15;;;;;;;11.90;7.83;;;9.30;99.90;;;;;;5052245;28;20225;-62
2021/11/17 05:57:00;;;;;;;13.00;7.77;;;9.30;99.90;;;;;;5052814;28;20206;-63
2021/11/17 05:59:46;;;;;;;11.53;7.70;;;9.30;99.90;;;;;;5052790;28;20232;-62
2021/11/17 06:02:45;;;;;;;9.60;7.10;;;9.30;99.90;;;;;;5052118;28;20209;-62
2021/11/17 06:05:12;;;;;;;10.77;7.53;;;9.30;99.90;;;;;;5052532;28;20259;-62
2021/11/17 06:07:38;;;;;;;10.20;7.80;;;9.30;99.90;;;;;;5052512;28;20230;-62
2021/11/17 06:10:11;;;;;;;11.93;8.10;;;9.30;99.90;;;;;;5052063;28;20197;-63
2021/11/17 06:12:38;;;;;;;12.17;8.40;;;9.20;99.90;;;;;;5052058;28;20206;-63
2021/11/17 06:15:07;;;;;;;14.87;10.20;;;9.20;99.90;;;;;;5052601;28;20206;-62
2021/11/17 06:17:35;;;;;;;13.33;8.83;;;9.20;99.90;;;;;;5052680;28;20205;-62
2021/11/17 06:20:04;;;;;;;12.17;8.73;;;9.30;99.90;;;;;;5052350;28;20681;-62
2021/11/17 06:22:33;;;;;;;11.37;7.90;;;9.20;99.90;;;;;;5052273;28;20217;-62
2021/11/17 06:25:02;;;;;;;12.67;8.83;;;9.30;99.90;;;;;;5051472;28;20205;-62
2021/11/17 06:27:33;;;;;;;26.93;20.50;;;9.30;99.90;;;;;;5051609;28;20213;-63
2021/11/17 06:30:00;;;;;;;13.27;8.50;;;9.30;99.90;;;;;;5051511;28;20210;-62
2021/11/17 06:32:28;;;;;;;13.23;8.57;;;9.40;99.90;;;;;;5051444;28;20205;-62
2021/11/17 06:34:58;;;;;;;13.30;9.40;;;9.30;99.90;;;;;;5051384;28;20202;-62
2021/11/17 06:37:26;;;;;;;15.27;9.03;;;9.30;99.90;;;;;;5051643;28;20259;-62
2021/11/17 06:39:55;;;;;;;13.20;8.73;;;9.30;99.90;;;;;;5051302;28;20209;-62
2021/11/17 06:42:25;;;;;;;11.07;7.30;;;9.30;99.90;;;;;;5051189;28;20651;-63
2021/11/17 06:44:54;;;;;;;13.27;8.03;;;9.30;99.90;;;;;;5050742;28;20244;-63
2021/11/17 06:47:21;;;;;;;11.37;8.03;;;9.30;99.90;;;;;;5051243;28;20233;-63
2021/11/17 06:49:48;;;;;;;13.10;8.40;;;9.30;99.90;;;;;;5050947;28;20275;-63
2021/11/17 06:52:15;;;;;;;13.33;8.20;;;9.30;99.90;;;;;;5051446;28;20304;-63
2021/11/17 06:54:42;;;;;;;23.57;14.07;;;9.30;99.90;;;;;;5051189;28;20228;-62
2021/11/17 06:57:09;;;;;;;19.77;10.23;;;9.30;99.90;;;;;;5051219;28;20209;-62
2021/11/17 06:59:36;;;;;;;14.30;8.73;;;9.30;99.90;;;;;;5050784;28;20247;-61
2021/11/17 07:02:05;;;;;;;15.17;8.70;;;9.40;99.90;;;;;;5050938;28;20205;-62
2021/11/17 07:04:33;;;;;;;12.77;8.27;;;9.40;99.90;;;;;;5050484;28;20229;-62
2021/11/17 07:07:00;;;;;;;13.53;8.60;;;9.40;99.90;;;;;;5051344;28;20214;-62
2021/11/17 07:09:26;;;;;;;11.50;7.80;;;9.40;99.90;;;;;;5050873;28;20233;-62
2021/11/17 07:11:53;;;;;;;10.43;7.43;;;9.30;99.90;;;;;;5051066;28;20217;-62
2021/11/17 07:14:22;;;;;;;10.23;7.20;;;9.40;99.90;;;;;;5050574;28;20737;-61
2021/11/17 07:16:49;;;;;;;11.87;7.47;;;9.40;99.90;;;;;;5050781;28;20693;-61
2021/11/17 07:19:23;;;;;;;11.47;7.27;;;9.40;99.90;;;;;;5050929;28;20208;-61
2021/11/17 07:21:51;;;;;;;10.07;6.63;;;9.40;99.90;;;;;;5051470;28;20209;-61
2021/11/17 07:24:17;;;;;;;10.73;7.50;;;9.40;99.90;;;;;;5050885;28;20737;-61
2021/11/17 07:26:44;;;;;;;10.93;7.10;;;9.40;99.90;;;;;;5050785;28;20613;-62
2021/11/17 07:29:11;;;;;;;9.50;6.53;;;9.40;99.90;;;;;;5050874;28;20225;-62
2021/11/17 07:31:38;;;;;;;11.13;7.33;;;9.40;99.90;;;;;;5050552;28;20263;-62
2021/11/17 07:34:04;;;;;;;11.33;7.17;;;9.40;99.90;;;;;;5050620;28;20225;-62
2021/11/17 07:36:33;;;;;;;9.90;6.87;;;9.40;99.90;;;;;;5050390;28;20216;-62
2021/11/17 07:39:00;;;;;;;11.67;6.80;;;9.40;99.90;;;;;;5050488;28;20703;-62
2021/11/17 07:41:27;;;;;;;11.30;6.70;;;9.40;99.90;;;;;;5050687;28;20284;-62
2021/11/17 07:43:54;;;;;;;11.47;6.40;;;9.50;99.90;;;;;;5072843;23;20658;-58
2021/11/17 07:46:21;;;;;;;9.93;6.33;;;9.40;99.90;;;;;;5050545;28;20691;-59
2021/11/17 07:48:47;;;;;;;11.73;6.70;;;9.50;99.90;;;;;;5050707;28;20235;-59
2021/11/17 07:51:15;;;;;;;11.30;7.20;;;9.50;99.90;;;;;;5050768;28;20274;-58
2021/11/17 07:53:43;;;;;;;10.60;6.70;;;9.50;99.90;;;;;;5050430;28;20225;-59
2021/11/17 07:56:10;;;;;;;11.77;6.87;;;9.50;99.90;;;;;;5050521;28;20212;-58
2021/11/17 07:58:41;;;;;;;9.07;6.27;;;9.60;99.90;;;;;;5050632;28;20210;-58
2021/11/17 08:01:08;;;;;;;12.53;7.10;;;9.60;99.90;;;;;;5050402;28;20669;-58
2021/11/17 08:03:38;;;;;;;9.80;6.60;;;9.60;99.90;;;;;;5050427;28;20244;-59
2021/11/17 08:06:06;;;;;;;11.47;6.90;;;9.60;99.90;;;;;;5050277;28;20670;-58
2021/11/17 08:08:34;;;;;;;10.07;6.83;;;9.70;99.90;;;;;;5050269;28;20221;-59
2021/11/17 08:11:03;;;;;;;9.73;6.80;;;9.60;99.90;;;;;;5050437;28;20587;-58
2021/11/17 08:13:32;;;;;;;13.83;7.10;;;9.70;99.90;;;;;;5049940;28;20233;-58
2021/11/17 08:15:58;;;;;;;13.00;6.90;;;9.70;99.90;;;;;;5050221;28;20680;-57
2021/11/17 08:18:26;;;;;;;11.70;7.67;;;9.80;99.90;;;;;;5050331;28;20202;-59
2021/11/17 08:20:53;;;;;;;13.17;7.93;;;9.90;99.90;;;;;;5050431;28;20300;-58
2021/11/17 08:23:20;;;;;;;15.23;7.63;;;9.80;99.90;;;;;;5050492;28;20230;-57
2021/11/17 08:25:47;;;;;;;15.73;7.47;;;9.90;99.90;;;;;;5050385;28;20209;-57
2021/11/17 08:28:16;;;;;;;11.80;7.30;;;10.00;99.90;;;;;;5050145;28;20565;-58
2021/11/17 08:30:44;;;;;;;13.70;7.13;;;10.00;99.90;;;;;;5050082;28;20213;-57
2021/11/17 08:33:12;;;;;;;10.87;6.83;;;10.10;99.90;;;;;;5050160;28;20229;-57
2021/11/17 08:35:40;;;;;;;10.70;6.30;;;10.20;99.90;;;;;;5050026;28;20235;-57
2021/11/17 08:38:09;;;;;;;5.30;3.53;;;10.00;99.90;;;;;;5050062;28;20356;-57
2021/11/17 08:40:38;;;;;;;5.07;3.13;;;9.90;99.90;;;;;;5050394;28;20216;-59
2021/11/17 08:43:05;;;;;;;4.60;2.30;;;9.60;99.90;;;;;;5050163;28;20205;-59
2021/11/17 08:45:34;;;;;;;3.40;2.07;;;9.50;99.90;;;;;;5049935;28;20267;-58
2021/11/17 08:48:01;;;;;;;3.97;2.53;;;9.30;99.90;;;;;;5051744;28;20209;-58
2021/11/17 08:50:32;;;;;;;3.97;2.67;;;9.10;99.90;;;;;;5053622;28;20232;-58
2021/11/17 08:52:59;;;;;;;3.83;2.30;;;9.10;99.90;;;;;;5053489;28;20627;-58
2021/11/17 08:55:29;;;;;;;3.60;2.47;;;8.90;99.90;;;;;;5053583;28;20612;-59
2021/11/17 08:57:57;;;;;;;4.27;2.50;;;8.90;99.90;;;;;;5053692;28;20232;-59
2021/11/17 09:00:25;;;;;;;3.90;2.70;;;9.00;99.90;;;;;;5053409;28;20597;-58
2021/11/17 09:02:55;;;;;;;5.27;3.30;;;9.20;99.90;;;;;;5053370;28;20274;-63
2021/11/17 09:05:27;;;;;;;5.20;2.60;;;9.50;99.90;;;;;;5053306;28;20216;-58
2021/11/17 09:07:54;;;;;;;3.73;2.57;;;9.70;99.90;;;;;;5053378;28;20213;-58
2021/11/17 09:10:23;;;;;;;4.50;3.50;;;9.90;99.90;;;;;;5053101;28;20645;-58
2021/11/17 09:12:50;;;;;;;3.90;3.13;;;10.00;99.90;;;;;;5052988;28;20209;-58
2021/11/17 09:15:20;;;;;;;8.57;3.50;;;10.10;99.90;;;;;;5052964;28;20205;-58
2021/11/17 09:17:47;;;;;;;4.93;2.87;;;10.10;99.90;;;;;;5052831;28;20213;-58
2021/11/17 09:20:17;;;;;;;6.80;3.40;;;10.20;99.90;;;;;;5053133;28;20197;-57
2021/11/17 09:22:45;;;;;;;4.60;3.10;;;10.10;99.90;;;;;;5052923;28;20213;-58
2021/11/17 09:25:13;;;;;;;5.87;3.23;;;10.10;99.90;;;;;;5052907;28;20238;-57
2021/11/17 09:27:41;;;;;;;5.87;3.07;;;10.00;99.90;;;;;;5053001;28;20209;-58
2021/11/17 09:30:10;;;;;;;4.47;3.07;;;10.00;99.90;;;;;;5052802;28;20697;-58
2021/11/17 09:32:38;;;;;;;4.07;2.93;;;9.90;99.90;;;;;;5052790;28;20949;-58
2021/11/17 09:35:07;;;;;;;6.03;3.20;;;9.90;99.90;;;;;;5053047;28;20245;-57
2021/11/17 09:37:36;;;;;;;4.57;3.00;;;9.90;99.90;;;;;;5053396;28;20267;-58
2021/11/17 09:40:06;;;;;;;4.50;3.37;;;9.80;99.90;;;;;;5053021;28;20206;-57
2021/11/17 09:42:32;;;;;;;3.23;2.60;;;9.60;99.90;;;;;;5053025;28;20209;-59
2021/11/17 09:44:59;;;;;;;3.03;2.43;;;9.60;99.90;;;;;;5052230;28;20712;-58
2021/11/17 09:47:31;;;;;;;4.70;2.20;;;9.60;99.90;;;;;;5052730;28;20233;-59
2021/11/17 09:50:07;;;;;;;3.43;2.40;;;9.50;99.90;;;;;;5052549;28;20240;-58
2021/11/17 09:52:38;;;;;;;3.73;2.37;;;9.50;99.90;;;;;;5052570;28;20295;-58
2021/11/17 09:55:12;;;;;;;3.93;2.80;;;9.60;99.90;;;;;;5052416;28;20320;-58
2021/11/17 09:57:42;;;;;;;4.47;2.90;;;9.70;99.90;;;;;;5052330;28;20208;-57
2021/11/17 10:00:16;;;;;;;6.00;2.60;;;9.80;99.90;;;;;;5052321;28;20217;-58
2021/11/17 10:02:49;;;;;;;7.33;2.77;;;9.90;99.90;;;;;;5052246;28;20217;-57
2021/11/17 10:05:19;;;;;;;3.73;2.43;;;10.00;99.90;;;;;;5052078;28;20623;-58
2021/11/17 10:13:42;;;;;;;4.53;2.40;;;10.40;99.90;;;;;;5050837;28;20775;-58
2021/11/17 10:16:08;;;;;;;3.53;2.80;;;10.40;99.90;;;;;;5051845;28;20308;-57
2021/11/17 10:18:39;;;;;;;3.10;2.17;;;10.50;99.90;;;;;;5052098;28;20210;-57
2021/11/17 10:21:11;;;;;;;5.30;3.40;;;10.50;99.90;;;;;;5052100;28;20205;-59
2021/11/17 10:23:56;;;;;;;3.97;2.20;;;10.50;99.90;;;;;;5051612;28;20574;-59
2021/11/17 10:26:23;;;;;;;2.80;2.10;;;10.70;99.90;;;;;;5052200;28;20240;-58
2021/11/17 10:28:54;;;;;;;3.77;2.10;;;10.80;99.90;;;;;;5051728;28;20210;-59
2021/11/17 10:31:25;;;;;;;2.37;1.80;;;10.80;99.90;;;;;;5052517;28;20210;-58
2021/11/17 10:34:17;;;;;;;2.20;1.53;;;10.80;99.90;;;;;;5051753;28;20260;-58
2021/11/17 10:36:51;;;;;;;3.20;2.23;;;10.80;99.90;;;;;;5052026;28;20216;-58
2021/11/17 10:39:22;;;;;;;3.33;1.30;;;10.80;99.90;;;;;;5051582;28;20291;-57
2021/11/17 10:42:05;;;;;;;1.60;1.40;;;10.70;99.90;;;;;;5051925;28;20208;-58
2021/11/17 10:44:42;;;;;;;1.33;1.23;;;10.70;99.90;;;;;;5051399;28;20643;-58
2021/11/17 10:47:16;;;;;;;2.10;1.40;;;10.80;99.90;;;;;;5051682;28;20300;-58
2021/11/17 10:49:46;;;;;;;1.50;1.30;;;10.90;99.90;;;;;;5051108;28;20240;-58
2021/11/17 10:52:14;;;;;;;1.53;1.30;;;10.90;99.90;;;;;;5051665;28;20209;-58
2021/11/17 10:54:49;;;;;;;1.47;1.10;;;10.80;99.90;;;;;;5051107;28;20229;-58
2021/11/17 10:57:20;;;;;;;2.47;1.33;;;10.60;99.90;;;;;;5051793;28;20615;-58
2021/11/17 10:59:47;;;;;;;2.00;1.43;;;10.60;99.90;;;;;;5051456;28;20205;-58
2021/11/17 11:02:15;;;;;;;1.50;1.27;;;10.60;99.90;;;;;;5051528;28;20209;-59
2021/11/17 11:04:45;;;;;;;1.93;1.50;;;10.60;99.90;;;;;;5051338;28;20601;-57
2021/11/17 11:07:24;;;;;;;2.00;1.40;;;10.50;99.90;;;;;;5051142;28;20684;-58
2021/11/17 11:09:59;;;;;;;1.60;1.20;;;10.60;99.90;;;;;;5050863;28;20217;-58
2021/11/17 11:12:29;;;;;;;1.30;1.20;;;10.60;99.90;;;;;;5050861;28;20216;-58
2021/11/17 11:15:04;;;;;;;4.33;1.13;;;10.60;99.90;;;;;;5051071;28;20229;-57
2021/11/17 11:17:35;;;;;;;1.47;1.27;;;10.60;99.90;;;;;;5051421;28;20200;-57
2021/11/17 11:20:34;;;;;;;2.23;1.53;;;10.60;99.90;;;;;;5050849;28;20256;-58
2021/11/17 11:23:16;;;;;;;1.57;1.20;;;10.70;99.90;;;;;;5044166;28;20247;-57
2021/11/17 11:25:51;;;;;;;5.53;1.50;;;10.70;99.90;;;;;;5050925;28;20343;-57
2021/11/17 11:28:25;;;;;;;2.43;1.53;;;10.70;99.90;;;;;;5050893;28;20213;-57
2021/11/17 11:31:16;;;;;;;2.13;1.33;;;10.70;99.90;;;;;;5051285;28;20233;-58
2021/11/17 11:33:48;;;;;;;3.63;1.50;;;10.60;99.90;;;;;;5050776;28;20243;-58
2021/11/17 11:36:43;;;;;;;2.77;1.00;;;10.60;99.90;;;;;;5050860;28;20605;-57
2021/11/17 11:39:28;;;;;;;2.17;0.87;;;10.60;99.90;;;;;;5050625;28;20287;-57
2021/11/17 11:42:38;;;;;;;2.80;1.47;;;10.60;99.90;;;;;;5050613;28;20205;-58
2021/11/17 11:45:40;;;;;;;2.40;0.83;;;10.70;99.90;;;;;;5050206;28;20240;-58
2021/11/17 11:48:09;;;;;;;2.37;1.30;;;10.80;99.90;;;;;;5043463;28;20693;-58
2021/11/17 11:51:00;;;;;;;2.70;1.40;;;10.80;99.90;;;;;;5050570;28;20229;-57
2021/11/17 11:54:06;;;;;;;2.83;1.47;;;10.80;99.90;;;;;;5050369;28;20233;-57
2021/11/17 11:56:43;;;;;;;3.43;1.80;;;10.90;99.90;;;;;;5050948;28;20241;-57
2021/11/17 11:59:14;;;;;;;2.10;1.50;;;11.00;99.90;;;;;;5050626;28;20209;-57
2021/11/17 12:01:41;;;;;;;2.03;1.17;;;10.90;99.90;;;;;;5050313;28;20263;-57
2021/11/17 12:04:13;;;;;;;1.10;1.00;;;10.80;99.90;;;;;;5050288;28;20745;-58
2021/11/17 12:06:50;;;;;;;1.03;0.93;;;10.80;99.90;;;;;;5050443;28;20210;-58
2021/11/17 12:09:29;;;;;;;0.87;0.70;;;10.90;99.90;;;;;;5050414;28;20212;-58
2021/11/17 12:11:58;;;;;;;2.73;1.17;;;10.90;99.90;;;;;;5050299;28;20672;-58
2021/11/17 12:14:33;;;;;;;2.00;1.30;;;10.90;99.90;;;;;;5050077;28;20650;-58
2021/11/17 12:17:01;;;;;;;1.30;1.13;;;10.80;99.90;;;;;;5050332;28;20267;-58
2021/11/17 12:19:48;;;;;;;3.30;1.20;;;10.70;99.90;;;;;;5050175;28;20213;-57
2021/11/17 12:22:18;;;;;;;1.03;0.90;;;10.80;99.90;;;;;;5052372;28;20206;-58
2021/11/17 12:24:47;;;;;;;0.70;0.70;;;10.70;99.90;;;;;;5053983;28;20713;-58
2021/11/17 12:27:16;;;;;;;1.60;1.07;;;10.60;99.90;;;;;;5054312;28;20255;-57
2021/11/17 12:29:54;;;;;;;0.97;0.70;;;10.50;99.90;;;;;;5053858;28;20245;-58
2021/11/17 12:32:29;;;;;;;1.93;0.83;;;10.40;99.90;;;;;;5054065;28;20256;-58
2021/11/17 12:35:09;;;;;;;1.10;0.90;;;10.30;99.90;;;;;;5053649;28;20225;-58
2021/11/17 12:37:48;;;;;;;1.47;0.80;;;10.10;99.90;;;;;;5053961;28;20633;-57
2021/11/17 12:40:18;;;;;;;2.17;1.93;;;10.00;99.90;;;;;;5053741;28;20212;-58
2021/11/17 12:42:51;;;;;;;1.97;1.60;;;10.00;99.90;;;;;;5053770;28;20209;-58
2021/11/17 12:45:25;;;;;;;2.70;1.70;;;10.00;99.90;;;;;;5053634;28;20633;-57
2021/11/17 12:47:55;;;;;;;4.50;2.80;;;9.80;99.90;;;;;;5053570;28;20696;-59
2021/11/17 12:50:28;;;;;;;1.70;1.30;;;9.80;99.90;;;;;;5053449;28;20278;-59
2021/11/17 12:52:58;;;;;;;1.10;1.00;;;9.70;99.90;;;;;;5053731;28;20212;-58
2021/11/17 12:55:29;;;;;;;1.50;1.23;;;9.80;99.90;;;;;;5053364;28;20731;-58
2021/11/17 12:58:09;;;;;;;1.77;0.93;;;9.80;99.90;;;;;;5053417;28;20217;-57
2021/11/17 13:00:59;;;;;;;1.57;0.90;;;9.90;99.90;;;;;;5053346;28;20244;-58
2021/11/17 13:03:34;;;;;;;1.33;0.50;;;9.90;99.90;;;;;;5053379;28;20233;-58
2021/11/17 13:06:07;;;;;;;0.70;0.70;;;10.00;99.90;;;;;;5053548;28;20216;-57
2021/11/17 13:08:36;;;;;;;1.77;1.30;;;9.90;99.90;;;;;;5053400;28;20209;-58
2021/11/17 13:11:10;;;;;;;1.90;1.13;;;10.00;99.90;;;;;;5053080;28;20233;-58
2021/11/17 13:13:45;;;;;;;2.37;1.30;;;10.00;99.90;;;;;;5052958;28;20232;-58
2021/11/17 13:16:18;;;;;;;1.10;0.93;;;10.00;99.90;;;;;;5053374;28;20240;-58
2021/11/17 13:18:57;;;;;;;2.90;1.00;;;10.00;99.90;;;;;;5053020;28;20263;-58
2021/11/17 13:21:50;;;;;;;2.90;1.00;;;9.90;99.90;;;;;;5053562;28;20209;-57
2021/11/17 13:24:36;;;;;;;3.33;1.37;;;9.90;99.90;;;;;;5053236;28;20222;-57
2021/11/17 13:27:36;;;;;;;1.77;1.20;;;9.80;99.90;;;;;;5053231;28;20213;-58
2021/11/17 13:30:17;;;;;;;2.33;1.80;;;9.90;99.90;;;;;;5052972;28;20489;-58
2021/11/17 13:32:47;;;;;;;1.70;1.60;;;9.90;99.90;;;;;;5053052;28;20267;-58
2021/11/17 13:35:33;;;;;;;1.83;1.20;;;9.90;99.90;;;;;;5052696;28;20339;-58
2021/11/17 13:38:15;;;;;;;1.80;1.20;;;9.90;99.90;;;;;;5052661;28;20552;-58
2021/11/17 13:40:43;;;;;;;2.40;1.50;;;9.80;99.90;;;;;;5052779;28;20676;-58
2021/11/17 13:43:11;;;;;;;2.30;1.23;;;9.70;99.90;;;;;;5053099;28;20234;-58
2021/11/17 13:45:39;;;;;;;1.80;1.30;;;9.60;99.90;;;;;;5052601;28;20632;-58
2021/11/17 13:48:08;;;;;;;1.63;1.40;;;9.60;99.90;;;;;;5052668;28;20210;-58
2021/11/17 13:50:38;;;;;;;1.73;1.57;;;9.60;99.90;;;;;;5052367;28;20237;-58
2021/11/17 13:53:07;;;;;;;1.57;1.30;;;9.70;99.90;;;;;;5052440;28;20217;-58
2021/11/17 13:55:38;;;;;;;2.93;1.40;;;9.70;99.90;;;;;;5052192;28;20638;-58
2021/11/17 13:58:07;;;;;;;1.50;1.30;;;9.70;99.90;;;;;;5052333;28;20212;-57
2021/11/17 14:00:35;;;;;;;1.83;1.50;;;9.70;99.90;;;;;;5052300;28;20209;-57
2021/11/17 14:03:01;;;;;;;1.23;1.13;;;9.80;99.90;;;;;;5052076;28;20216;-58
2021/11/17 14:05:29;;;;;;;4.13;3.00;;;9.80;99.90;;;;;;5052067;28;20231;-59
2021/11/17 14:07:56;;;;;;;2.70;2.33;;;9.80;99.90;;;;;;5052039;28;20681;-60
2021/11/17 14:10:24;;;;;;;2.97;2.00;;;9.70;99.90;;;;;;5052390;28;20624;-57
2021/11/17 14:12:52;;;;;;;1.90;1.73;;;9.70;99.90;;;;;;5052125;28;20306;-58
2021/11/17 14:15:19;;;;;;;3.10;1.77;;;9.70;99.90;;;;;;5051911;28;20587;-58
2021/11/17 14:17:47;;;;;;;2.37;1.63;;;9.70;99.90;;;;;;5051781;28;20229;-58
2021/11/17 14:20:14;;;;;;;2.10;1.87;;;9.80;99.90;;;;;;5052139;28;20205;-59
2021/11/17 14:22:42;;;;;;;2.00;1.80;;;9.80;99.90;;;;;;5052567;28;20205;-58
2021/11/17 14:25:16;;;;;;;2.23;1.63;;;9.80;99.90;;;;;;5052923;28;20607;-60
2021/11/17 14:27:44;;;;;;;2.83;2.07;;;9.80;99.90;;;;;;5053042;28;20205;-58
2021/11/17 14:30:14;;;;;;;2.43;1.93;;;9.70;99.90;;;;;;5051878;28;20721;-58
2021/11/17 14:32:43;;;;;;;2.90;2.10;;;9.70;99.90;;;;;;5052202;28;20252;-59
2021/11/17 14:35:13;;;;;;;3.53;2.43;;;9.70;99.90;;;;;;5051969;28;20230;-58
2021/11/17 14:37:41;;;;;;;2.70;2.00;;;9.70;99.90;;;;;;5052672;28;20205;-60
2021/11/17 14:40:11;;;;;;;4.77;2.10;;;9.70;99.90;;;;;;5051915;28;20252;-60
2021/11/17 14:42:38;;;;;;;4.97;2.13;;;9.70;99.90;;;;;;5049166;28;20213;-60
2021/11/17 14:45:07;;;;;;;2.70;1.70;;;9.70;99.90;;;;;;5050435;28;20240;-57
2021/11/17 14:47:33;;;;;;;5.20;1.80;;;9.70;99.90;;;;;;5051599;28;20220;-58
2021/11/17 14:50:00;;;;;;;2.57;2.20;;;9.80;99.90;;;;;;5051228;28;20697;-58
2021/11/17 14:52:27;;;;;;;2.63;1.90;;;9.80;99.90;;;;;;5051095;28;20209;-58
2021/11/17 14:54:54;;;;;;;2.53;2.10;;;9.90;99.90;;;;;;5051541;28;20225;-59
2021/11/17 14:57:22;;;;;;;3.83;2.40;;;9.90;99.90;;;;;;5051276;28;20212;-58
2021/11/17 14:59:49;;;;;;;2.53;2.07;;;9.80;99.90;;;;;;5051832;28;20205;-59
2021/11/17 15:02:16;;;;;;;2.70;2.10;;;9.80;99.90;;;;;;5051947;28;20198;-64
2021/11/17 15:04:42;;;;;;;6.10;2.27;;;9.80;99.90;;;;;;5051065;28;20620;-59
2021/11/17 15:07:11;;;;;;;3.60;2.27;;;9.60;99.90;;;;;;5051149;28;20248;-58
2021/11/17 15:09:38;;;;;;;6.80;3.43;;;9.50;99.90;;;;;;5051374;28;20217;-59
2021/11/17 15:12:12;;;;;;;7.40;2.90;;;9.40;99.90;;;;;;5051296;28;20226;-59
2021/11/17 15:14:40;;;;;;;5.37;2.63;;;9.40;99.90;;;;;;5051163;28;20229;-58
2021/11/17 15:17:07;;;;;;;7.03;4.17;;;9.40;99.90;;;;;;5051088;28;20214;-57
2021/11/17 15:19:34;;;;;;;15.60;9.07;;;9.40;99.90;;;;;;5050749;28;20224;-59
2021/11/17 15:22:01;;;;;;;3.53;2.40;;;9.50;99.90;;;;;;5050839;28;20201;-63
2021/11/17 15:24:30;;;;;;;4.50;2.37;;;9.50;99.90;;;;;;5050229;28;20637;-59
2021/11/17 15:26:59;;;;;;;6.90;2.90;;;9.60;99.90;;;;;;5050723;28;20691;-62
2021/11/17 15:29:26;;;;;;;3.37;2.57;;;9.60;99.90;;;;;;5050781;28;20221;-60
2021/11/17 15:31:54;;;;;;;7.00;3.60;;;9.60;99.90;;;;;;5050678;28;20233;-60
2021/11/17 15:34:21;;;;;;;5.00;2.77;;;9.60;99.90;;;;;;5050458;28;20233;-62
2021/11/17 15:36:48;;;;;;;7.00;4.23;;;9.70;99.90;;;;;;5050655;28;20205;-59
2021/11/17 15:39:15;;;;;;;3.93;2.50;;;9.70;99.90;;;;;;5050394;28;20267;-60
2021/11/17 15:41:43;;;;;;;3.93;2.03;;;9.60;99.90;;;;;;5050917;28;20209;-59
2021/11/17 15:44:11;;;;;;;5.07;3.20;;;9.60;99.90;;;;;;5050237;28;20616;-59
2021/11/17 15:46:49;;;;;;;3.07;2.27;;;9.50;99.90;;;;;;5050369;28;20206;-58
2021/11/17 15:49:17;;;;;;;2.60;1.90;;;9.50;99.90;;;;;;5050507;28;20627;-58
2021/11/17 15:51:47;;;;;;;4.93;2.57;;;9.50;99.90;;;;;;5050373;28;20230;-58
2021/11/17 15:54:14;;;;;;;5.03;2.60;;;9.50;99.90;;;;;;5050547;28;20225;-58
2021/11/17 15:56:41;;;;;;;4.03;2.17;;;9.50;99.90;;;;;;5051367;28;20254;-58
2021/11/17 15:59:11;;;;;;;3.50;2.70;;;9.50;99.90;;;;;;5054486;28;20233;-58
2021/11/17 16:01:38;;;;;;;6.20;3.27;;;9.50;99.90;;;;;;5054263;28;20652;-59